Endeavour — VNJC — position and weather

sailwx.info

Track history (hours):
 
Tides and Currents Weather Stations Pressure Air Temp Water Temp Dewpoint Dewpoint Depression Visibility Wind Speed Wind Dir Waves Ship Positions

Endeavour (Australia)

Ship's website: http://www.anmm.gov.au/

Last reported at 2019-Dec-20 19:56 UTC. Time now 2020-Jul-02 16:35 UTC.
Position S 33°52' E 151°15'.
Warning: this ship's position is months out of date.

Length 44 m; draft 3.9 m.

Type: Sailing vessel. MMSI: 503094000.

Date/timePositionNaut miles runAvg speedWind from/ knotsBaromVisibWave heightAir tempDewpointWater temp
2019-Dec-20 19:56S 33°52' E 151°15'0 0.0
2019-Dec-20 18:14S 33°52' E 151°15'0 0.0
2019-Dec-20 17:47S 33°52' E 151°15'0 0.0
2019-Dec-20 14:50S 33°52' E 151°15'0 0.1
2019-Dec-20 14:11S 33°52' E 151°15'0 0.0
2019-Dec-20 13:59S 33°52' E 151°15'0 0.1
2019-Dec-20 13:11S 33°52' E 151°15'0 0.0
2019-Dec-20 11:56S 33°52' E 151°15'0 0.0
2019-Dec-20 10:56S 33°52' E 151°15'5 0.3
2019-Dec-19 21:00S 33°50' E 151°20'2 4.7
2019-Dec-19 20:30S 33°53' E 151°21'15 1.7
2019-Dec-19 11:30S 33°57' E 151°39'14 5.6
2019-Dec-19 09:00S 34°03' E 151°54'18 6.6
2019-Dec-19 06:19S 34°11' E 152°13'2 1.2
2019-Dec-19 04:30S 34°12' E 152°15'4 3.7
2019-Dec-19 03:30S 34°09' E 152°18'24 6.1
2019-Dec-18 23:30S 33°55' E 152°42'4 7.8
2019-Dec-18 23:00S 33°52' E 152°46'63 9.0
2019-Dec-18 16:00S 33°14' E 153°46'  
Track history (hours):
 
Tides and Currents Weather Stations Pressure Air Temp Water Temp Dewpoint Dewpoint Depression Visibility Wind Speed Wind Dir Waves Ship Positions

Endeavour (Australia)

Ship's website: http://www.anmm.gov.au/

Last reported at 2019-Dec-20 19:56 UTC. Time now 2020-Jul-02 16:35 UTC.
Position S 33°52' E 151°15'.
Warning: this ship's position is months out of date.

Length 44 m; draft 3.9 m.

Type: Sailing vessel. MMSI: 503094000.

Date/timePositionNaut miles runAvg speedWind from/ knotsBaromVisibWave heightAir tempDewpointWater temp
2019-Dec-20 19:56S 33°52' E 151°15'0 0.0
2019-Dec-20 18:14S 33°52' E 151°15'0 0.0
2019-Dec-20 17:47S 33°52' E 151°15'0 0.0
2019-Dec-20 14:50S 33°52' E 151°15'0 0.1
2019-Dec-20 14:11S 33°52' E 151°15'0 0.0
2019-Dec-20 13:59S 33°52' E 151°15'0 0.1
2019-Dec-20 13:11S 33°52' E 151°15'0 0.0
2019-Dec-20 11:56S 33°52' E 151°15'0 0.0
2019-Dec-20 10:56S 33°52' E 151°15'5 0.3
2019-Dec-19 21:00S 33°50' E 151°20'2 4.7
2019-Dec-19 20:30S 33°53' E 151°21'15 1.7
2019-Dec-19 11:30S 33°57' E 151°39'14 5.6
2019-Dec-19 09:00S 34°03' E 151°54'18 6.6
2019-Dec-19 06:19S 34°11' E 152°13'2 1.2
2019-Dec-19 04:30S 34°12' E 152°15'4 3.7
2019-Dec-19 03:30S 34°09' E 152°18'24 6.1
2019-Dec-18 23:30S 33°55' E 152°42'4 7.8
2019-Dec-18 23:00S 33°52' E 152°46'63 9.0
2019-Dec-18 16:00S 33°14' E 153°46'  

Dump ship's entire track history